Terminal Aerodrome Forecast
Issued by NWS

Home | Current Version | Previous Version | Text Only | Print | Product List | Glossary On
Versions: 1 2 3 4 5 6 7 8 9 10 11 12 13 14 15 16 17 18 19 20 21 22
000
FTUS41 KPBZ 210804 AAA
TAFMGW
TAF AMD
KMGW 210804Z 2108/2206 20005KT P6SM BKN050
     FM211500 24015G28KT P6SM BKN050
     FM220100 23010KT P6SM BKN050=

USA.gov is the U.S. government's official web portal to all federal, state and local government web resources and services.